createdAt,value
2018-07-24T00:01:12.010Z,91.90
2018-07-24T00:03:40.270Z,92.31
2018-07-24T00:06:08.546Z,92.00
2018-07-24T00:08:36.793Z,92.34
2018-07-24T00:11:05.146Z,93.23
2018-07-24T00:13:33.234Z,94.75
2018-07-24T00:16:01.507Z,92.88
2018-07-24T00:18:29.767Z,93.71
2018-07-24T00:20:58.067Z,93.44
2018-07-24T00:23:26.591Z,93.72
2018-07-24T00:25:54.864Z,96.96
2018-07-24T00:28:23.147Z,94.53
2018-07-24T00:30:51.409Z,94.86
2018-07-24T00:33:20.526Z,94.75
2018-07-24T00:35:48.869Z,96.04
2018-07-24T00:38:17.131Z,95.98
2018-07-24T00:40:45.364Z,97.11
2018-07-24T00:43:13.773Z,96.34
2018-07-24T00:45:42.069Z,96.59
2018-07-24T00:48:10.333Z,97.54
2018-07-24T00:50:38.547Z,99.85
2018-07-24T00:53:06.860Z,97.42
2018-07-24T00:55:35.067Z,97.18
2018-07-24T00:58:03.423Z,97.15
2018-07-24T01:00:31.708Z,96.87
2018-07-24T01:02:59.899Z,96.48
2018-07-24T01:05:28.178Z,96.58
2018-07-24T01:07:56.556Z,97.26
2018-07-24T01:10:25.456Z,97.23
2018-07-24T01:12:53.759Z,97.21
2018-07-24T01:15:22.119Z,99.21
2018-07-24T01:17:50.469Z,98.54
2018-07-24T01:20:18.853Z,99.23
2018-07-24T01:22:47.112Z,100.00
2018-07-24T01:25:15.508Z,99.68
2018-07-24T01:27:43.842Z,98.96
2018-07-24T01:30:12.134Z,99.27
2018-07-24T01:32:40.416Z,100.00
2018-07-24T01:35:08.677Z,99.74
2018-07-24T01:37:36.927Z,100.00
2018-07-24T01:40:05.276Z,99.64
2018-07-24T01:42:33.539Z,100.00
2018-07-24T01:45:01.797Z,100.00
2018-07-24T01:47:30.058Z,99.69
2018-07-24T01:49:58.358Z,100.00
2018-07-24T01:52:26.824Z,100.00
2018-07-24T01:54:55.202Z,100.00
2018-07-24T01:57:23.523Z,100.00
2018-07-24T01:59:51.883Z,100.00
2018-07-24T02:02:21.450Z,100.00
2018-07-24T02:04:49.667Z,100.00
2018-07-24T02:07:18.038Z,100.00
2018-07-24T02:09:46.249Z,100.00
2018-07-24T02:12:14.618Z,100.00
2018-07-24T02:14:42.896Z,100.00
2018-07-24T02:17:11.539Z,100.00
2018-07-24T02:19:39.816Z,100.00
2018-07-24T02:22:08.198Z,100.00
2018-07-24T02:24:36.499Z,100.00
2018-07-24T02:27:05.193Z,100.00
2018-07-24T02:29:33.451Z,100.00
2018-07-24T02:32:01.780Z,100.00
2018-07-24T02:34:30.141Z,100.00
2018-07-24T02:36:58.588Z,100.00
2018-07-24T02:39:27.023Z,100.00
2018-07-24T02:41:55.278Z,100.00
2018-07-24T02:44:23.684Z,100.00
2018-07-24T02:46:51.971Z,100.00
2018-07-24T02:49:20.186Z,100.00
2018-07-24T02:51:48.456Z,100.00
2018-07-24T02:54:16.760Z,100.00
2018-07-24T02:56:45.031Z,100.00
2018-07-24T02:59:13.331Z,100.00
2018-07-24T03:01:41.534Z,100.00
2018-07-24T03:04:09.890Z,100.00
2018-07-24T03:06:38.164Z,100.00
2018-07-24T03:09:08.651Z,100.00
2018-07-24T03:11:36.942Z,100.00
2018-07-24T03:14:05.184Z,100.00
2018-07-24T03:16:33.487Z,100.00
2018-07-24T03:19:01.779Z,100.00
2018-07-24T03:21:30.991Z,100.00
2018-07-24T03:23:59.304Z,100.00
2018-07-24T03:26:27.587Z,100.00
2018-07-24T03:28:55.850Z,100.00
2018-07-24T03:31:24.090Z,100.00
2018-07-24T03:33:52.409Z,100.00
2018-07-24T03:36:20.625Z,100.00
2018-07-24T03:38:48.907Z,100.00
2018-07-24T03:41:17.264Z,100.00
2018-07-24T03:43:45.571Z,100.00
2018-07-24T03:46:13.864Z,100.00
2018-07-24T03:48:42.110Z,100.00
2018-07-24T03:51:10.516Z,100.00
2018-07-24T03:53:38.744Z,100.00
2018-07-24T03:56:07.528Z,100.00
2018-07-24T03:58:35.823Z,100.00
2018-07-24T04:01:04.070Z,100.00
2018-07-24T04:03:32.433Z,100.00
2018-07-24T04:09:32.633Z,100.00
2018-07-24T04:12:00.926Z,100.00
2018-07-24T04:14:29.198Z,100.00
2018-07-24T04:16:57.631Z,100.00
2018-07-24T04:19:25.881Z,100.00
2018-07-24T04:21:54.245Z,100.00
2018-07-24T04:24:22.699Z,100.00
2018-07-24T04:26:50.955Z,100.00
2018-07-24T04:29:19.248Z,100.00
2018-07-24T04:31:47.527Z,100.00
2018-07-24T04:34:15.859Z,100.00
2018-07-24T04:36:44.273Z,99.94
2018-07-24T04:39:12.741Z,100.00
2018-07-24T04:41:41.043Z,100.00
2018-07-24T04:44:10.380Z,100.00
2018-07-24T04:46:38.705Z,100.00
2018-07-24T04:49:07.063Z,100.00
2018-07-24T04:51:35.309Z,99.25
2018-07-24T04:54:03.567Z,99.10
2018-07-24T04:56:31.880Z,98.91
2018-07-24T04:59:00.222Z,98.81
2018-07-24T05:01:28.578Z,98.70
2018-07-24T05:03:56.827Z,98.21
2018-07-24T05:06:25.237Z,97.92
2018-07-24T05:08:53.432Z,96.38
2018-07-24T05:11:21.750Z,96.67
2018-07-24T05:13:52.280Z,97.87
2018-07-24T05:16:20.901Z,93.88
2018-07-24T05:18:49.140Z,93.30
2018-07-24T05:21:17.478Z,92.85
2018-07-24T05:23:45.750Z,95.67
2018-07-24T05:26:13.952Z,92.02
2018-07-24T05:28:42.204Z,92.41
2018-07-24T05:31:10.616Z,90.74
2018-07-24T05:33:38.961Z,89.22
2018-07-24T05:36:07.510Z,89.07
2018-07-24T05:38:35.837Z,88.75
2018-07-24T05:41:04.261Z,90.87
2018-07-24T05:43:32.447Z,86.69
2018-07-24T05:46:00.695Z,84.10
2018-07-24T05:48:29.081Z,81.93
2018-07-24T05:50:57.327Z,79.64
2018-07-24T05:53:25.741Z,77.41
2018-07-24T05:55:53.979Z,76.55
2018-07-24T05:58:22.260Z,74.73
2018-07-24T06:00:50.503Z,73.78
2018-07-24T06:03:18.766Z,72.24
2018-07-24T06:05:47.003Z,71.75
2018-07-24T06:08:15.220Z,70.25
2018-07-24T06:10:43.535Z,69.79
2018-07-24T06:13:11.804Z,68.40
2018-07-24T06:15:40.072Z,66.60
2018-07-24T06:18:08.339Z,66.03
2018-07-24T06:20:36.575Z,66.67
2018-07-24T06:23:04.970Z,66.33
2018-07-24T06:25:33.454Z,65.28
2018-07-24T06:28:01.710Z,65.15
2018-07-24T06:30:29.976Z,65.59
2018-07-24T06:32:58.251Z,64.59
2018-07-24T06:35:26.506Z,65.03
2018-07-24T06:37:54.804Z,65.21
2018-07-24T06:40:23.082Z,63.50
2018-07-24T06:42:51.355Z,63.85
2018-07-24T06:45:19.713Z,64.28
2018-07-24T06:47:47.942Z,63.45
2018-07-24T06:50:16.235Z,63.12
2018-07-24T06:52:44.513Z,63.07
2018-07-24T06:55:12.750Z,62.00
2018-07-24T06:57:41.049Z,61.75
2018-07-24T07:00:09.389Z,60.79
2018-07-24T07:02:37.639Z,60.65
2018-07-24T07:05:06.230Z,61.35
2018-07-24T07:07:34.675Z,60.96
2018-07-24T07:10:02.865Z,59.45
2018-07-24T07:12:31.207Z,59.36
2018-07-24T07:14:59.521Z,59.32
2018-07-24T07:17:27.991Z,59.69
2018-07-24T07:19:56.696Z,58.41
2018-07-24T07:22:25.239Z,59.08
2018-07-24T07:24:53.525Z,59.30
2018-07-24T07:27:21.804Z,59.08
2018-07-24T07:29:50.155Z,58.05
2018-07-24T07:32:18.661Z,57.23
2018-07-24T07:34:47.009Z,57.05
2018-07-24T07:37:15.502Z,57.68
2018-07-24T07:39:43.785Z,57.25
2018-07-24T07:42:12.259Z,56.94
2018-07-24T07:44:40.455Z,57.00
2018-07-24T07:47:08.678Z,55.33
2018-07-24T07:49:36.928Z,56.19
2018-07-24T07:52:05.299Z,56.95
2018-07-24T07:54:33.536Z,56.06
2018-07-24T07:57:01.772Z,55.73
2018-07-24T07:59:30.011Z,55.19
2018-07-24T08:01:58.467Z,55.26
2018-07-24T08:04:26.813Z,53.74
2018-07-24T08:06:55.020Z,54.76
2018-07-24T08:09:24.057Z,55.42
2018-07-24T08:11:52.311Z,56.33
2018-07-24T08:14:32.501Z,55.29
2018-07-24T08:17:00.983Z,56.00
2018-07-24T08:19:29.301Z,55.82
2018-07-24T08:21:57.509Z,56.63
2018-07-24T08:24:26.075Z,54.90
2018-07-24T08:26:54.510Z,53.70
2018-07-24T08:29:22.785Z,55.04
2018-07-24T08:31:51.210Z,55.20
2018-07-24T08:34:19.485Z,54.42
2018-07-24T08:36:47.883Z,53.87
2018-07-24T08:39:16.202Z,54.20
2018-07-24T08:41:44.539Z,53.41
2018-07-24T08:44:12.814Z,53.33
2018-07-24T08:46:41.072Z,52.78
2018-07-24T08:49:09.393Z,53.80
2018-07-24T08:51:38.404Z,51.74
2018-07-24T08:54:07.648Z,52.16
2018-07-24T08:56:35.775Z,50.49
2018-07-24T08:59:04.028Z,51.22
2018-07-24T09:01:32.251Z,50.82
2018-07-24T09:04:00.552Z,50.03
2018-07-24T09:06:28.731Z,49.63
2018-07-24T09:08:56.953Z,47.82
2018-07-24T09:11:25.351Z,49.42
2018-07-24T09:13:53.597Z,48.58
2018-07-24T09:16:21.933Z,46.18
2018-07-24T09:18:50.245Z,47.88
2018-07-24T09:21:18.535Z,46.56
2018-07-24T09:23:46.836Z,48.00
2018-07-24T09:26:15.493Z,47.69
2018-07-24T09:28:44.331Z,45.21
2018-07-24T09:31:12.639Z,45.79
2018-07-24T09:33:41.031Z,44.63
2018-07-24T09:36:09.231Z,45.90
2018-07-24T09:38:37.487Z,45.07
2018-07-24T09:41:05.824Z,44.94
2018-07-24T09:43:34.045Z,45.48
2018-07-24T09:46:02.262Z,44.18
2018-07-24T09:48:30.552Z,45.09
2018-07-24T09:50:58.988Z,41.89
2018-07-24T09:53:28.956Z,41.03
2018-07-24T09:56:02.456Z,39.32
2018-07-24T09:58:31.120Z,40.69
2018-07-24T10:01:04.704Z,44.05
2018-07-24T10:03:33.024Z,40.01
2018-07-24T10:06:01.316Z,38.88
2018-07-24T10:08:29.720Z,41.68
2018-07-24T10:10:58.106Z,39.31
2018-07-24T10:13:26.551Z,39.98
2018-07-24T10:15:54.685Z,42.00
2018-07-24T10:18:23.011Z,39.29
2018-07-24T10:20:51.255Z,40.45
2018-07-24T10:23:19.514Z,39.73
2018-07-24T10:25:47.866Z,39.46
2018-07-24T10:28:16.156Z,41.29
2018-07-24T10:30:44.566Z,40.65
2018-07-24T10:33:12.806Z,38.67
2018-07-24T10:35:41.027Z,39.31
2018-07-24T10:38:09.390Z,36.71
2018-07-24T10:40:37.772Z,38.07
2018-07-24T10:43:06.156Z,37.58
2018-07-24T10:45:34.325Z,36.98
2018-07-24T10:48:02.713Z,39.17
2018-07-24T10:50:31.059Z,36.06
2018-07-24T10:52:59.429Z,35.96
2018-07-24T10:55:27.687Z,34.11
2018-07-24T10:57:56.143Z,34.62
2018-07-24T11:00:24.413Z,35.06
2018-07-24T11:02:52.730Z,34.90
2018-07-24T11:05:20.960Z,32.38
2018-07-24T11:07:49.139Z,34.42
2018-07-24T11:10:17.406Z,35.60
2018-07-24T11:12:45.679Z,34.29
2018-07-24T11:15:13.984Z,36.28
2018-07-24T11:17:42.155Z,35.43
2018-07-24T11:20:10.382Z,34.59
2018-07-24T11:22:38.782Z,36.85
2018-07-24T11:25:06.987Z,34.94
2018-07-24T11:27:35.213Z,35.54
2018-07-24T11:30:03.544Z,32.22
2018-07-24T11:32:32.562Z,34.48
2018-07-24T11:35:00.972Z,34.30
2018-07-24T11:37:29.264Z,35.58
2018-07-24T11:39:57.786Z,35.39
2018-07-24T11:42:26.492Z,34.46
2018-07-24T11:44:54.697Z,32.79
2018-07-24T11:47:23.081Z,32.90
2018-07-24T11:49:51.275Z,33.25
2018-07-24T11:52:19.539Z,33.14
2018-07-24T11:54:47.743Z,33.42
2018-07-24T11:57:16.209Z,34.08
2018-07-24T11:59:44.520Z,31.68
2018-07-24T12:02:12.864Z,29.30
2018-07-24T12:04:41.272Z,30.02
2018-07-24T12:07:09.552Z,29.49
2018-07-24T12:09:37.861Z,27.92
2018-07-24T12:12:06.378Z,28.78
2018-07-24T12:14:34.692Z,26.83
2018-07-24T12:17:02.948Z,26.23
2018-07-24T12:19:31.280Z,23.72
2018-07-24T12:21:59.486Z,22.04
2018-07-24T12:24:27.876Z,20.99
2018-07-24T12:26:56.365Z,21.08
2018-07-24T12:29:25.716Z,21.50
2018-07-24T12:31:53.978Z,19.93
2018-07-24T12:34:22.254Z,18.87
2018-07-24T12:36:50.532Z,17.06
2018-07-24T12:39:18.782Z,17.56
2018-07-24T12:41:47.120Z,16.19
2018-07-24T12:44:15.385Z,15.11
2018-07-24T12:46:43.675Z,15.27
2018-07-24T12:49:11.983Z,14.68
2018-07-24T12:51:40.283Z,14.15
2018-07-24T12:54:08.684Z,14.65
2018-07-24T12:56:36.918Z,14.67
2018-07-24T12:59:06.364Z,13.93
2018-07-24T13:01:34.581Z,13.16
2018-07-24T13:04:02.872Z,12.87
2018-07-24T13:06:31.288Z,12.82
2018-07-24T13:09:00.580Z,13.74
2018-07-24T13:11:28.874Z,13.18
2018-07-24T13:13:57.430Z,12.87
2018-07-24T13:16:25.680Z,12.65
2018-07-24T13:18:53.887Z,12.59
2018-07-24T13:21:22.165Z,12.06
2018-07-24T13:23:50.466Z,12.32
2018-07-24T13:26:18.780Z,11.80
2018-07-24T13:28:47.091Z,12.00
2018-07-24T13:31:15.379Z,11.79
2018-07-24T13:33:43.691Z,11.62
2018-07-24T13:36:12.110Z,12.39
2018-07-24T13:38:40.507Z,14.20
2018-07-24T13:41:08.854Z,15.39
2018-07-24T13:43:37.259Z,16.70
2018-07-24T13:46:05.604Z,17.40
2018-07-24T13:48:33.882Z,15.99
2018-07-24T13:51:02.191Z,14.25
2018-07-24T13:53:30.478Z,12.71
2018-07-24T13:55:58.763Z,12.01
2018-07-24T13:58:27.252Z,11.12
2018-07-24T14:00:55.497Z,11.88
2018-07-24T14:03:23.851Z,9.14
2018-07-24T14:05:52.290Z,10.42
2018-07-24T14:08:20.620Z,10.65
2018-07-24T14:10:48.806Z,10.83
2018-07-24T14:13:17.047Z,10.45
2018-07-24T14:15:45.346Z,9.74
2018-07-24T14:18:13.569Z,9.00
2018-07-24T14:20:41.771Z,9.46
2018-07-24T14:23:10.006Z,9.18
2018-07-24T14:25:38.227Z,9.08
2018-07-24T14:28:06.485Z,8.33
2018-07-24T14:30:34.843Z,9.26
2018-07-24T14:33:03.091Z,8.97
2018-07-24T14:35:31.351Z,8.41
2018-07-24T14:37:59.541Z,9.81
2018-07-24T14:40:27.800Z,8.47
2018-07-24T14:42:56.500Z,8.88
2018-07-24T14:45:24.772Z,8.25
2018-07-24T14:47:53.050Z,9.22
2018-07-24T14:50:21.269Z,8.55
2018-07-24T14:52:49.792Z,8.72
2018-07-24T14:55:18.199Z,9.06
2018-07-24T14:57:46.416Z,9.72
2018-07-24T15:00:14.700Z,9.69
2018-07-24T15:02:42.956Z,11.32
2018-07-24T15:05:11.220Z,12.04
2018-07-24T15:07:39.461Z,12.29
2018-07-24T15:10:07.848Z,12.61
2018-07-24T15:12:36.147Z,13.57
2018-07-24T15:15:16.704Z,15.71
2018-07-24T15:17:45.477Z,16.18
2018-07-24T15:20:13.682Z,16.56
2018-07-24T15:22:41.977Z,18.77
2018-07-24T15:25:10.543Z,17.09
2018-07-24T15:27:38.939Z,15.92
2018-07-24T15:30:08.471Z,13.50
2018-07-24T15:32:36.804Z,11.75
2018-07-24T15:35:05.339Z,11.72
2018-07-24T15:37:33.614Z,10.78
2018-07-24T15:40:01.974Z,10.30
2018-07-24T15:42:30.302Z,11.93
2018-07-24T15:44:58.583Z,11.58
2018-07-24T15:47:26.956Z,11.16
2018-07-24T15:49:55.448Z,11.76
2018-07-24T15:52:24.355Z,11.10
2018-07-24T15:54:52.709Z,12.70
2018-07-24T15:57:20.922Z,11.85
2018-07-24T15:59:49.311Z,12.11
2018-07-24T16:02:17.562Z,11.46
2018-07-24T16:04:45.831Z,12.31
2018-07-24T16:07:14.205Z,11.69
2018-07-24T16:09:42.528Z,10.99
2018-07-24T16:12:11.123Z,12.09
2018-07-24T16:14:39.419Z,11.71
2018-07-24T16:17:07.939Z,12.28
2018-07-24T16:19:36.285Z,11.76
2018-07-24T16:22:04.717Z,11.54
2018-07-24T16:24:33.153Z,10.66
2018-07-24T16:27:01.446Z,12.00
2018-07-24T16:29:29.774Z,10.96
2018-07-24T16:31:58.053Z,12.08
2018-07-24T16:34:26.474Z,11.71
2018-07-24T16:36:54.691Z,11.97
2018-07-24T16:39:23.019Z,13.57
2018-07-24T16:41:51.259Z,14.61
2018-07-24T16:44:19.594Z,15.57
2018-07-24T16:46:47.924Z,17.33
2018-07-24T16:49:16.151Z,16.77
2018-07-24T16:51:44.571Z,16.28
2018-07-24T16:54:12.846Z,15.27
2018-07-24T16:56:41.064Z,15.90
2018-07-24T16:59:09.325Z,14.77
2018-07-24T17:01:37.783Z,15.76
2018-07-24T17:04:06.218Z,14.56
2018-07-24T17:06:34.562Z,15.67
2018-07-24T17:09:03.018Z,14.40
2018-07-24T17:11:31.296Z,14.57
2018-07-24T17:13:59.611Z,14.62
2018-07-24T17:16:27.911Z,14.53
2018-07-24T17:18:56.306Z,15.06
2018-07-24T17:21:24.955Z,15.55
2018-07-24T17:23:53.330Z,15.04
2018-07-24T17:26:21.739Z,15.96
2018-07-24T17:28:49.946Z,16.25
2018-07-24T17:31:18.409Z,15.32
2018-07-24T17:33:46.667Z,16.13
2018-07-24T17:36:15.660Z,16.12
2018-07-24T17:38:44.524Z,16.71
2018-07-24T17:41:16.691Z,17.71
2018-07-24T17:43:44.967Z,16.50
2018-07-24T17:46:13.286Z,17.86
2018-07-24T17:48:41.492Z,17.24
2018-07-24T17:51:09.995Z,17.79
2018-07-24T17:53:38.524Z,17.96
2018-07-24T17:56:06.718Z,18.54
2018-07-24T17:58:35.036Z,19.41
2018-07-24T18:01:03.297Z,19.06
2018-07-24T18:03:31.577Z,19.88
2018-07-24T18:06:00.113Z,20.91
2018-07-24T18:08:28.340Z,23.34
2018-07-24T18:10:56.544Z,22.80
2018-07-24T18:13:24.866Z,22.97
2018-07-24T18:15:53.369Z,24.48
2018-07-24T18:18:21.770Z,25.58
2018-07-24T18:20:50.074Z,28.37
2018-07-24T18:23:18.342Z,28.36
2018-07-24T18:25:46.940Z,29.34
2018-07-24T18:28:15.866Z,28.87
2018-07-24T18:30:44.228Z,28.33
2018-07-24T18:33:23.810Z,29.74
2018-07-24T18:35:52.266Z,32.31
2018-07-24T18:38:20.572Z,30.76
2018-07-24T18:40:48.903Z,32.24
2018-07-24T18:43:17.134Z,32.93
2018-07-24T18:45:45.542Z,32.14
2018-07-24T18:48:13.795Z,33.98
2018-07-24T18:50:42.221Z,35.08
2018-07-24T18:53:10.679Z,33.20
2018-07-24T18:55:39.131Z,34.67
2018-07-24T18:58:07.587Z,35.55
2018-07-24T19:00:35.829Z,34.65
2018-07-24T19:03:04.407Z,38.11
2018-07-24T19:05:32.782Z,37.67
2018-07-24T19:08:01.195Z,36.29
2018-07-24T19:10:29.419Z,37.11
2018-07-24T19:12:57.658Z,37.32
2018-07-24T19:15:26.023Z,39.96
2018-07-24T19:17:54.362Z,38.44
2018-07-24T19:20:22.744Z,40.24
2018-07-24T19:22:51.050Z,39.97
2018-07-24T19:25:19.436Z,42.55
2018-07-24T19:27:48.220Z,38.46
2018-07-24T19:30:16.532Z,40.66
2018-07-24T19:32:48.593Z,40.46
2018-07-24T19:35:17.240Z,44.10
2018-07-24T19:37:45.721Z,44.18
2018-07-24T19:40:13.930Z,43.42
2018-07-24T19:42:42.166Z,40.70
2018-07-24T19:45:10.858Z,41.63
2018-07-24T19:47:39.997Z,42.54
2018-07-24T19:50:08.381Z,42.04
2018-07-24T19:52:36.951Z,43.95
2018-07-24T19:55:05.513Z,42.29
2018-07-24T19:57:33.725Z,43.19
2018-07-24T20:00:02.003Z,43.78
2018-07-24T20:02:30.359Z,45.80
2018-07-24T20:04:58.639Z,46.78
2018-07-24T20:07:26.886Z,46.84
2018-07-24T20:09:55.164Z,46.55
2018-07-24T20:12:23.604Z,46.80
2018-07-24T20:14:52.208Z,48.10
2018-07-24T20:17:20.750Z,48.09
2018-07-24T20:19:49.059Z,48.93
2018-07-24T20:22:17.376Z,49.14
2018-07-24T20:24:46.155Z,49.20
2018-07-24T20:27:14.930Z,49.05
2018-07-24T20:29:43.738Z,48.57
2018-07-24T20:32:12.048Z,49.30
2018-07-24T20:34:40.323Z,48.61
2018-07-24T20:37:08.603Z,49.40
2018-07-24T20:39:36.829Z,49.14
2018-07-24T20:42:05.228Z,49.51
2018-07-24T20:44:33.582Z,49.18
2018-07-24T20:47:02.064Z,48.75
2018-07-24T20:49:30.678Z,50.67
2018-07-24T20:51:58.969Z,51.33
2018-07-24T20:54:27.228Z,49.02
2018-07-24T20:56:55.535Z,50.09
2018-07-24T20:59:44.395Z,52.24
2018-07-24T21:02:13.392Z,53.15
2018-07-24T21:04:41.678Z,52.12
2018-07-24T21:07:09.895Z,51.96
2018-07-24T21:09:38.247Z,51.32
2018-07-24T21:12:06.501Z,52.84
2018-07-24T21:14:34.835Z,53.10
2018-07-24T21:17:03.135Z,53.46
2018-07-24T21:19:31.384Z,54.76
2018-07-24T21:21:59.785Z,54.98
2018-07-24T21:24:28.019Z,53.17
2018-07-24T21:26:56.476Z,53.88
2018-07-24T21:29:24.818Z,53.75
2018-07-24T21:31:53.072Z,54.55
2018-07-24T21:34:21.369Z,55.26
2018-07-24T21:36:49.603Z,55.96
2018-07-24T21:39:18.018Z,56.53
2018-07-24T21:41:46.224Z,58.08
2018-07-24T21:44:14.499Z,58.26
2018-07-24T21:46:42.800Z,57.47
2018-07-24T21:49:11.094Z,58.00
2018-07-24T21:51:39.304Z,57.47
2018-07-24T21:54:07.579Z,57.19
2018-07-24T21:56:35.833Z,58.77
2018-07-24T21:59:04.037Z,59.48
2018-07-24T22:01:32.339Z,60.69
2018-07-24T22:04:00.597Z,60.76
2018-07-24T22:06:28.878Z,59.94
2018-07-24T22:08:57.212Z,60.25
2018-07-24T22:11:25.363Z,61.31
2018-07-24T22:13:53.615Z,59.44
2018-07-24T22:16:21.896Z,61.08
2018-07-24T22:18:50.240Z,60.05
2018-07-24T22:21:18.547Z,60.76
2018-07-24T22:23:46.854Z,61.32
2018-07-24T22:26:15.756Z,61.88
2018-07-24T22:28:43.976Z,62.48
2018-07-24T22:31:13.281Z,63.31
2018-07-24T22:33:41.546Z,63.02
2018-07-24T22:36:09.942Z,61.70
2018-07-24T22:38:38.751Z,61.81
2018-07-24T22:41:08.150Z,60.71
2018-07-24T22:43:36.570Z,59.69
2018-07-24T22:46:04.845Z,60.38
2018-07-24T22:48:33.539Z,59.57
2018-07-24T22:51:01.775Z,60.61
2018-07-24T22:53:30.057Z,59.68
2018-07-24T22:55:58.435Z,60.17
2018-07-24T22:58:26.623Z,60.86
2018-07-24T23:00:55.058Z,62.26
2018-07-24T23:03:23.346Z,61.83
2018-07-24T23:05:56.685Z,61.66
2018-07-24T23:08:26.069Z,62.37
2018-07-24T23:10:54.303Z,61.78
2018-07-24T23:13:22.535Z,62.65
2018-07-24T23:15:50.936Z,64.37
2018-07-24T23:18:19.268Z,64.04
2018-07-24T23:20:47.546Z,64.74
2018-07-24T23:23:16.039Z,65.36
2018-07-24T23:25:44.254Z,63.94
2018-07-24T23:28:12.696Z,63.74
2018-07-24T23:30:41.083Z,65.07
2018-07-24T23:33:09.331Z,64.38
2018-07-24T23:35:37.565Z,66.01
2018-07-24T23:38:06.356Z,66.51
2018-07-24T23:40:34.683Z,66.04
2018-07-24T23:43:02.972Z,64.70
2018-07-24T23:45:31.201Z,65.06
2018-07-24T23:47:59.514Z,64.73
2018-07-24T23:50:27.800Z,65.18
2018-07-24T23:52:56.663Z,66.16
2018-07-24T23:55:25.892Z,64.79
2018-07-24T23:57:54.208Z,65.26
